• Join FlightAware (Why Join?)
  • Login
  • US Flag 
05:16PM EDT


 

Airport Tracker/Info


-or-


 

Live Flight TrackerFlight Track Log ✈ SWA224 ✈ 27-Apr-2013 ✈ KOAK - KPHX

Flight Track Log - Related Links

Times and Time Zones

All times are in EDT time to prevent confusion due to time zone crossing. See the SWA224 flight status page for this flight to view local times or setup timezone preferences in your user account.

Time Position Orientation Groundspeed Altitude Reporting Facility
EDT Latitude Longitude Course Direction KTS MPH feet Rate Location/Type
11:19AM 37.7292 -122.2558 107° East 170 196 1,900  Level Oakland Center
11:20AM 37.7592 -122.3133 303° West 206 237 4,900 3,540 Climbing Oakland Center
11:22AM 37.7667 -122.4167 275° West 294 338 9,400 4,200 Climbing Northern Cal TRACON
11:23AM 37.7000 -122.4833 218° Southwest 310 357 13,700 3,720 Climbing Northern Cal TRACON
11:24AM 37.6167 -122.4167 148° Southeast 361 415 16,900 2,580 Climbing Northern Cal TRACON
11:25AM 37.2259 -122.1870 107° East  Level FlightAware Approximate
11:25AM 37.5667 -122.3358 128° Southeast 365 420 18,900  Level Oakland Center
11:26AM 37.4956 -122.2356 132° Southeast 379 436 19,600 2,160 Climbing Oakland Center
11:27AM 37.4097 -122.1106 131° Southeast 392 451 23,400 3,300 Climbing Oakland Center
11:28AM 37.3342 -122.0008 131° Southeast 411 473 26,400 2,940 Climbing Oakland Center
11:29AM 37.2567 -121.8858 130° Southeast 427 491 29,400 2,940 Climbing Oakland Center
11:30AM 37.1781 -121.7742 131° Southeast 427 491 32,400 2,160 Climbing Oakland Center
11:31AM 37.0986 -121.6600 131° Southeast 439 505 33,900 1,740 Climbing Oakland Center
11:32AM 37.0167 -121.5419 131° Southeast 449 517 36,000 1,980 Climbing Oakland Center
11:33AM 36.9356 -121.4258 131° Southeast 445 512 38,000 1,800 Climbing Oakland Center
11:34AM 36.8550 -121.3086 131° Southeast 446 513 39,700 1,440 Climbing Oakland Center
11:35AM 36.7672 -121.1872 132° Southeast 437 503 41,000 600 Climbing Oakland Center
11:36AM 36.6847 -121.0719 132° Southeast 444 511 41,000  Level Oakland Center
11:37AM 36.6036 -120.9564 131° Southeast 443 510 41,000  Level Oakland Center
11:38AM 36.5233 -120.8408 131° Southeast 442 509 41,000  Level Oakland Center
11:39AM 36.4422 -120.7264 131° Southeast 441 507 41,000  Level Oakland Center
11:40AM 36.3606 -120.6139 132° Southeast 439 505 41,000  Level Oakland Center
11:41AM 36.2794 -120.5000 131° Southeast 440 506 41,000  Level Oakland Center
11:42AM 36.1953 -120.3853 132° Southeast 448 516 41,000  Level Oakland Center
11:43AM 36.1125 -120.2703 132° Southeast 445 512 41,000  Level Oakland Center
11:44AM 36.0133 -120.1353 132° Southeast 441 507 41,000  Level Oakland Center
11:45AM 35.9311 -120.0256 133° Southeast 436 502 41,000  Level Oakland Center
11:46AM 35.8469 -119.9108 132° Southeast 446 513 41,000  Level Oakland Center
11:47AM 35.7628 -119.7936 131° Southeast 452 520 41,000  Level Oakland Center
11:48AM 35.6997 -119.6589 120° Southeast 456 525 41,000  Level Oakland Center
11:49AM 35.6425 -119.5192 117° Southeast 455 524 41,000  Level Oakland Center
11:50AM 35.5861 -119.3792 116° Southeast 457 526 41,000  Level Oakland Center
11:50AM 35.5658 -119.3256 115° Southeast 452 520 41,000  Level Los Angeles Center
11:51AM 35.5100 -119.1875 116° Southeast 451 519 41,000  Level Los Angeles Center
11:52AM 35.4542 -119.0478 116° Southeast 454 522 41,000  Level Los Angeles Center
11:53AM 35.3972 -118.9092 117° Southeast 455 524 41,000  Level Los Angeles Center
11:54AM 35.3408 -118.7700 116° Southeast 455 524 41,000  Level Los Angeles Center
11:55AM 35.2750 -118.6056 116° Southeast 451 519 41,000  Level Los Angeles Center
11:57AM 35.2164 -118.4700 118° Southeast 453 521 41,000  Level Los Angeles Center
11:58AM 35.1581 -118.3319 117° Southeast 457 526 41,000  Level Los Angeles Center
11:59AM 35.1003 -118.1936 117° Southeast 455 524 41,000  Level Los Angeles Center
12:00PM 35.0433 -118.0581 117° Southeast 457 526 41,000  Level Los Angeles Center
12:01PM 34.9856 -117.9206 117° Southeast 459 528 41,000  Level Los Angeles Center
12:02PM 34.9156 -117.7550 117° Southeast 464 534 41,000  Level Los Angeles Center
12:03PM 34.8589 -117.6178 117° Southeast 462 532 41,000  Level Los Angeles Center
12:04PM 34.7989 -117.4789 118° Southeast 467 537 41,000  Level Los Angeles Center
12:05PM 34.7394 -117.3397 117° Southeast 470 541 41,000  Level Los Angeles Center
12:06PM 34.6800 -117.2017 118° Southeast 466 536 41,000  Level Los Angeles Center
12:07PM 34.6083 -117.0356 118° Southeast 465 535 41,000  Level Los Angeles Center
12:08PM 34.5489 -116.8975 118° Southeast 464 534 41,000  Level Los Angeles Center
12:09PM 34.4883 -116.7583 118° Southeast 469 540 41,000  Level Los Angeles Center
12:10PM 34.4283 -116.6197 118° Southeast 468 539 41,000  Level Los Angeles Center
12:11PM 34.3692 -116.4783 117° Southeast 472 543 41,000  Level Los Angeles Center
12:12PM 34.3083 -116.3394 118° Southeast 471 542 41,000  Level Los Angeles Center
12:13PM 34.2467 -116.2006 118° Southeast 471 542 41,000  Level Los Angeles Center
12:14PM 34.1728 -116.0331 118° Southeast 472 543 41,000  Level Los Angeles Center
12:15PM 34.1072 -115.8883 119° Southeast 473 544 41,000  Level Los Angeles Center
12:16PM 34.0453 -115.7492 118° Southeast 472 543 41,000  Level Los Angeles Center
12:17PM 33.9814 -115.6086 119° Southeast 476 548 41,000  Level Los Angeles Center
12:18PM 33.9181 -115.4689 119° Southeast 475 547 41,000  Level Los Angeles Center
12:19PM 33.8547 -115.3292 119° Southeast 475 547 41,000  Level Los Angeles Center
12:20PM 33.7928 -115.1900 118° Southeast 473 544 41,000 -60 Level Los Angeles Center
12:21PM 33.7147 -115.0233 119° Southeast 474 545 40,900 -1,080 Descending Los Angeles Center
12:22PM 33.6514 -114.8844 119° Southeast 473 544 38,800 -2,280 Descending Los Angeles Center
12:23PM 33.5919 -114.7469 117° Southeast 465 535 36,300 -2,700 Descending Los Angeles Center
12:24PM 33.5664 -114.6022 102° East 465 535 33,600 -2,640 Descending Albuquerque Center
12:25PM 33.5378 -114.4564 103° East 454 522 31,200 -2,280 Descending Albuquerque Center
12:26PM 33.5117 -114.3178 103° East 434 499 28,900 -2,280 Descending Albuquerque Center
12:27PM 33.4847 -114.1872 104° East 412 474 26,600 -1,920 Descending Albuquerque Center
12:28PM 33.4589 -114.0617 104° East 395 455 25,000 -840 Descending Albuquerque Center
12:29PM 33.4353 -113.9403 103° East 380 437 25,000  Level Albuquerque Center
12:30PM 33.4111 -113.8197 103° East 374 430 25,000  Level Albuquerque Center
12:31PM 33.3808 -113.6739 104° East 375 432 25,000 -780 Level Albuquerque Center
12:32PM 33.3569 -113.5522 103° East 376 433 23,500 -1,500 Descending Albuquerque Center
12:34PM 33.3336 -113.4364 104° East 364 419 22,000 -1,500 Descending Albuquerque Center
12:35PM 33.3089 -113.3219 104° East 357 411 20,400 -1,740 Descending Albuquerque Center
12:36PM 33.2858 -113.2103 104° East 350 403 18,500 -1,860 Descending Albuquerque Center
12:37PM 33.2733 -113.1008 98° East 337 388 16,600 -1,920 Descending Albuquerque Center
12:38PM 33.2761 -112.9922 88° East 328 377 14,600 -1,860 Descending Albuquerque Center
12:39PM 33.2783 -112.8881 89° East 317 365 12,800 -1,800 Descending Albuquerque Center
12:40PM 33.2978 -112.7769 78° East 295 339 11,000 -1,380 Descending Albuquerque Center
12:41PM 33.3286 -112.6939 66° East 281 323 10,000 -780 Descending Albuquerque Center
12:42PM 33.3581 -112.6144 66° East 271 312 9,400 -840 Descending Albuquerque Center
12:43PM 33.3869 -112.5372 66° East 257 296 8,300 -900 Descending Albuquerque Center
12:44PM 33.4131 -112.4678 66° East 231 266 7,600 -900 Descending Albuquerque Center
12:45PM 33.4286 -112.3950 76° East 228 262 6,500 -960 Descending Albuquerque Center
12:46PM 33.4281 -112.3192 90° East 230 265 5,700 -1,020 Descending Albuquerque Center
12:47PM 33.4289 -112.2294 89° East 225 259 4,400 -1,200 Descending Albuquerque Center
12:48PM 33.4289 -112.1572 90° East 219 252 3,300 -1,020 Descending Albuquerque Center
12:49PM 33.4283 -112.0986 91° East 180 207 2,400 -840 Descending Albuquerque Center
12:50PM 33.4289 -112.0556 89° East 137 158 1,600 -660 Descending Albuquerque Center
12:51PM 33.4289 -112.0086 90° East 129 148 1,100 -540 Descending Albuquerque Center
12:53PM 33.4343 -112.0116 104° East  Level Estimated